sensor_id;sensor_type;location;lat;lon;timestamp;P1;durP1;ratioP1;P2;durP2;ratioP2
68987;SDS011;56038;46.080;11.116;2024-03-22T00:01:06;6.50;;;4.25;;
68987;SDS011;56038;46.080;11.116;2024-03-22T00:06:09;7.35;;;4.53;;
68987;SDS011;56038;46.080;11.116;2024-03-22T00:11:10;7.90;;;4.95;;
68987;SDS011;56038;46.080;11.116;2024-03-22T00:16:12;6.78;;;5.22;;
68987;SDS011;56038;46.080;11.116;2024-03-22T00:21:16;6.88;;;4.60;;
68987;SDS011;56038;46.080;11.116;2024-03-22T00:26:18;7.75;;;5.07;;
68987;SDS011;56038;46.080;11.116;2024-03-22T00:31:20;4.50;;;3.30;;
68987;SDS011;56038;46.080;11.116;2024-03-22T00:36:23;2.72;;;2.40;;
68987;SDS011;56038;46.080;11.116;2024-03-22T00:41:25;3.65;;;2.53;;
68987;SDS011;56038;46.080;11.116;2024-03-22T00:46:27;4.43;;;2.75;;
68987;SDS011;56038;46.080;11.116;2024-03-22T00:51:30;2.35;;;1.98;;
68987;SDS011;56038;46.080;11.116;2024-03-22T00:56:32;2.67;;;2.17;;
68987;SDS011;56038;46.080;11.116;2024-03-22T01:01:33;2.63;;;1.90;;
68987;SDS011;56038;46.080;11.116;2024-03-22T01:06:36;1.67;;;1.58;;
68987;SDS011;56038;46.080;11.116;2024-03-22T01:11:40;1.90;;;1.70;;
68987;SDS011;56038;46.080;11.116;2024-03-22T01:16:42;2.30;;;1.67;;
68987;SDS011;56038;46.080;11.116;2024-03-22T01:21:45;2.00;;;1.80;;
68987;SDS011;56038;46.080;11.116;2024-03-22T01:26:46;2.28;;;2.05;;
68987;SDS011;56038;46.080;11.116;2024-03-22T01:31:48;2.38;;;2.17;;
68987;SDS011;56038;46.080;11.116;2024-03-22T01:36:52;2.22;;;2.00;;
68987;SDS011;56038;46.080;11.116;2024-03-22T01:41:54;2.00;;;1.20;;
68987;SDS011;56038;46.080;11.116;2024-03-22T01:46:55;2.28;;;1.95;;
68987;SDS011;56038;46.080;11.116;2024-03-22T01:51:59;5.00;;;2.72;;
68987;SDS011;56038;46.080;11.116;2024-03-22T01:57:01;3.70;;;2.13;;
68987;SDS011;56038;46.080;11.116;2024-03-22T02:02:03;3.33;;;2.15;;
68987;SDS011;56038;46.080;11.116;2024-03-22T02:07:06;2.33;;;2.10;;
68987;SDS011;56038;46.080;11.116;2024-03-22T02:12:08;3.05;;;2.30;;
68987;SDS011;56038;46.080;11.116;2024-03-22T02:17:10;4.28;;;1.90;;
68987;SDS011;56038;46.080;11.116;2024-03-22T02:22:13;1.40;;;1.10;;
68987;SDS011;56038;46.080;11.116;2024-03-22T02:27:16;2.17;;;1.98;;
68987;SDS011;56038;46.080;11.116;2024-03-22T02:32:18;2.67;;;2.38;;
68987;SDS011;56038;46.080;11.116;2024-03-22T02:37:21;2.65;;;1.90;;
68987;SDS011;56038;46.080;11.116;2024-03-22T02:42:24;2.97;;;2.00;;
68987;SDS011;56038;46.080;11.116;2024-03-22T02:47:26;1.70;;;1.55;;
68987;SDS011;56038;46.080;11.116;2024-03-22T02:52:28;2.45;;;1.90;;
68987;SDS011;56038;46.080;11.116;2024-03-22T02:57:31;1.70;;;1.38;;
68987;SDS011;56038;46.080;11.116;2024-03-22T03:02:33;2.70;;;1.63;;
68987;SDS011;56038;46.080;11.116;2024-03-22T03:07:34;1.63;;;1.48;;
68987;SDS011;56038;46.080;11.116;2024-03-22T03:12:37;1.85;;;1.67;;
68987;SDS011;56038;46.080;11.116;2024-03-22T03:17:39;2.35;;;1.52;;
68987;SDS011;56038;46.080;11.116;2024-03-22T03:22:41;1.55;;;1.40;;
68987;SDS011;56038;46.080;11.116;2024-03-22T03:27:44;2.70;;;1.50;;
68987;SDS011;56038;46.080;11.116;2024-03-22T03:32:45;1.20;;;1.10;;
68987;SDS011;56038;46.080;11.116;2024-03-22T03:37:47;1.92;;;1.17;;
68987;SDS011;56038;46.080;11.116;2024-03-22T03:42:50;2.58;;;1.77;;
68987;SDS011;56038;46.080;11.116;2024-03-22T03:47:52;1.52;;;1.35;;
68987;SDS011;56038;46.080;11.116;2024-03-22T03:52:53;2.00;;;1.50;;
68987;SDS011;56038;46.080;11.116;2024-03-22T03:57:56;2.05;;;1.88;;
68987;SDS011;56038;46.080;11.116;2024-03-22T04:02:58;1.58;;;1.48;;
68987;SDS011;56038;46.080;11.116;2024-03-22T04:07:59;2.10;;;1.17;;
68987;SDS011;56038;46.080;11.116;2024-03-22T04:13:02;3.67;;;1.50;;
68987;SDS011;56038;46.080;11.116;2024-03-22T04:18:04;1.85;;;1.58;;
68987;SDS011;56038;46.080;11.116;2024-03-22T04:23:06;1.40;;;1.30;;
68987;SDS011;56038;46.080;11.116;2024-03-22T04:28:09;1.63;;;1.48;;
68987;SDS011;56038;46.080;11.116;2024-03-22T04:33:11;2.83;;;1.70;;
68987;SDS011;56038;46.080;11.116;2024-03-22T04:38:12;1.48;;;1.20;;
68987;SDS011;56038;46.080;11.116;2024-03-22T04:43:15;1.48;;;1.20;;
68987;SDS011;56038;46.080;11.116;2024-03-22T04:48:18;1.80;;;1.45;;
68987;SDS011;56038;46.080;11.116;2024-03-22T04:53:21;2.15;;;1.65;;
68987;SDS011;56038;46.080;11.116;2024-03-22T04:58:24;2.35;;;1.50;;
68987;SDS011;56038;46.080;11.116;2024-03-22T05:03:25;2.45;;;2.25;;
68987;SDS011;56038;46.080;11.116;2024-03-22T05:08:27;3.17;;;2.05;;
68987;SDS011;56038;46.080;11.116;2024-03-22T05:13:30;2.72;;;2.00;;
68987;SDS011;56038;46.080;11.116;2024-03-22T05:18:32;2.90;;;1.98;;
68987;SDS011;56038;46.080;11.116;2024-03-22T05:23:33;4.38;;;2.08;;
68987;SDS011;56038;46.080;11.116;2024-03-22T05:28:36;6.72;;;2.20;;
68987;SDS011;56038;46.080;11.116;2024-03-22T05:33:38;3.33;;;2.05;;
68987;SDS011;56038;46.080;11.116;2024-03-22T05:38:40;4.68;;;2.20;;
68987;SDS011;56038;46.080;11.116;2024-03-22T05:43:43;2.90;;;1.90;;
68987;SDS011;56038;46.080;11.116;2024-03-22T05:48:46;2.80;;;2.30;;
68987;SDS011;56038;46.080;11.116;2024-03-22T05:53:48;4.28;;;2.58;;
68987;SDS011;56038;46.080;11.116;2024-03-22T05:58:51;3.47;;;2.30;;
68987;SDS011;56038;46.080;11.116;2024-03-22T06:03:53;5.00;;;2.28;;
68987;SDS011;56038;46.080;11.116;2024-03-22T06:08:54;4.90;;;2.83;;
68987;SDS011;56038;46.080;11.116;2024-03-22T06:14:01;1.75;;;1.63;;
68987;SDS011;56038;46.080;11.116;2024-03-22T06:19:03;4.82;;;2.30;;
68987;SDS011;56038;46.080;11.116;2024-03-22T06:24:05;4.30;;;1.75;;
68987;SDS011;56038;46.080;11.116;2024-03-22T06:29:08;3.92;;;1.90;;
68987;SDS011;56038;46.080;11.116;2024-03-22T06:34:10;5.63;;;2.08;;
68987;SDS011;56038;46.080;11.116;2024-03-22T06:39:11;5.70;;;3.20;;
68987;SDS011;56038;46.080;11.116;2024-03-22T06:44:15;1.90;;;1.73;;
68987;SDS011;56038;46.080;11.116;2024-03-22T06:49:16;2.92;;;1.95;;
68987;SDS011;56038;46.080;11.116;2024-03-22T06:54:18;3.35;;;1.80;;
68987;SDS011;56038;46.080;11.116;2024-03-22T06:59:21;4.97;;;2.08;;
68987;SDS011;56038;46.080;11.116;2024-03-22T07:04:22;7.30;;;2.20;;
68987;SDS011;56038;46.080;11.116;2024-03-22T07:09:24;4.45;;;1.88;;
68987;SDS011;56038;46.080;11.116;2024-03-22T07:14:29;3.15;;;1.92;;
68987;SDS011;56038;46.080;11.116;2024-03-22T07:19:31;4.80;;;2.58;;
68987;SDS011;56038;46.080;11.116;2024-03-22T07:24:34;3.35;;;1.58;;
68987;SDS011;56038;46.080;11.116;2024-03-22T07:29:37;3.42;;;2.58;;
68987;SDS011;56038;46.080;11.116;2024-03-22T07:34:39;2.78;;;1.75;;
68987;SDS011;56038;46.080;11.116;2024-03-22T07:39:41;3.95;;;1.95;;
68987;SDS011;56038;46.080;11.116;2024-03-22T07:44:44;2.67;;;1.77;;
68987;SDS011;56038;46.080;11.116;2024-03-22T07:49:46;5.55;;;1.77;;
68987;SDS011;56038;46.080;11.116;2024-03-22T07:54:48;5.03;;;1.60;;
68987;SDS011;56038;46.080;11.116;2024-03-22T07:59:50;18.23;;;3.30;;
68987;SDS011;56038;46.080;11.116;2024-03-22T08:04:52;14.95;;;3.30;;
68987;SDS011;56038;46.080;11.116;2024-03-22T08:09:54;2.05;;;1.63;;
68987;SDS011;56038;46.080;11.116;2024-03-22T08:14:57;4.28;;;2.05;;
68987;SDS011;56038;46.080;11.116;2024-03-22T08:19:58;13.45;;;3.17;;
68987;SDS011;56038;46.080;11.116;2024-03-22T08:25:00;10.85;;;2.47;;
68987;SDS011;56038;46.080;11.116;2024-03-22T08:30:06;3.67;;;1.60;;
68987;SDS011;56038;46.080;11.116;2024-03-22T08:35:09;6.55;;;2.55;;
68987;SDS011;56038;46.080;11.116;2024-03-22T08:40:11;6.10;;;1.83;;
68987;SDS011;56038;46.080;11.116;2024-03-22T08:45:15;3.90;;;2.00;;
68987;SDS011;56038;46.080;11.116;2024-03-22T08:50:17;8.43;;;2.00;;
68987;SDS011;56038;46.080;11.116;2024-03-22T08:55:19;5.25;;;1.80;;
68987;SDS011;56038;46.080;11.116;2024-03-22T09:00:22;24.60;;;3.30;;
68987;SDS011;56038;46.080;11.116;2024-03-22T09:05:24;4.00;;;1.30;;
68987;SDS011;56038;46.080;11.116;2024-03-22T09:10:27;3.47;;;1.05;;
68987;SDS011;56038;46.080;11.116;2024-03-22T09:15:30;7.50;;;1.35;;
68987;SDS011;56038;46.080;11.116;2024-03-22T09:20:31;3.20;;;2.63;;
68987;SDS011;56038;46.080;11.116;2024-03-22T09:25:33;6.75;;;1.60;;
68987;SDS011;56038;46.080;11.116;2024-03-22T09:30:38;2.45;;;1.27;;
68987;SDS011;56038;46.080;11.116;2024-03-22T09:40:42;5.03;;;1.00;;
68987;SDS011;56038;46.080;11.116;2024-03-22T09:45:44;5.38;;;1.40;;
68987;SDS011;56038;46.080;11.116;2024-03-22T09:50:47;3.40;;;0.90;;
68987;SDS011;56038;46.080;11.116;2024-03-22T09:55:49;2.40;;;0.93;;
68987;SDS011;56038;46.080;11.116;2024-03-22T10:00:53;2.10;;;1.10;;
68987;SDS011;56038;46.080;11.116;2024-03-22T10:06:00;8.60;;;1.35;;
68987;SDS011;56038;46.080;11.116;2024-03-22T10:11:02;1.23;;;1.13;;
68987;SDS011;56038;46.080;11.116;2024-03-22T10:16:06;10.60;;;1.50;;
68987;SDS011;56038;46.080;11.116;2024-03-22T10:21:08;13.13;;;1.63;;
68987;SDS011;56038;46.080;11.116;2024-03-22T10:26:10;4.20;;;1.10;;
68987;SDS011;56038;46.080;11.116;2024-03-22T10:31:14;9.02;;;1.42;;
68987;SDS011;56038;46.080;11.116;2024-03-22T10:36:16;8.80;;;1.55;;
68987;SDS011;56038;46.080;11.116;2024-03-22T10:41:20;3.70;;;0.97;;
68987;SDS011;56038;46.080;11.116;2024-03-22T10:46:23;0.80;;;0.80;;
68987;SDS011;56038;46.080;11.116;2024-03-22T10:51:30;0.75;;;0.75;;
68987;SDS011;56038;46.080;11.116;2024-03-22T10:56:35;1.08;;;0.75;;
68987;SDS011;56038;46.080;11.116;2024-03-22T11:07:30;0.93;;;0.85;;
68987;SDS011;56038;46.080;11.116;2024-03-22T11:12:31;1.00;;;0.75;;
68987;SDS011;56038;46.080;11.116;2024-03-22T11:17:33;3.80;;;1.05;;
68987;SDS011;56038;46.080;11.116;2024-03-22T11:22:36;0.63;;;0.60;;
68987;SDS011;56038;46.080;11.116;2024-03-22T11:27:38;0.60;;;0.60;;
68987;SDS011;56038;46.080;11.116;2024-03-22T11:32:40;0.82;;;0.57;;
68987;SDS011;56038;46.080;11.116;2024-03-22T11:37:46;2.05;;;0.85;;
68987;SDS011;56038;46.080;11.116;2024-03-22T11:42:50;0.93;;;0.80;;
68987;SDS011;56038;46.080;11.116;2024-03-22T11:47:54;1.00;;;0.70;;
68987;SDS011;56038;46.080;11.116;2024-03-22T11:52:57;1.73;;;1.05;;
68987;SDS011;56038;46.080;11.116;2024-03-22T11:57:59;0.63;;;0.60;;
68987;SDS011;56038;46.080;11.116;2024-03-22T12:03:00;1.17;;;0.70;;
68987;SDS011;56038;46.080;11.116;2024-03-22T12:08:04;0.82;;;0.80;;
68987;SDS011;56038;46.080;11.116;2024-03-22T12:13:06;1.75;;;0.60;;
68987;SDS011;56038;46.080;11.116;2024-03-22T12:18:07;0.80;;;0.80;;
68987;SDS011;56038;46.080;11.116;2024-03-22T12:23:10;1.50;;;0.98;;
68987;SDS011;56038;46.080;11.116;2024-03-22T12:28:12;10.95;;;2.05;;
68987;SDS011;56038;46.080;11.116;2024-03-22T12:33:14;5.32;;;1.08;;
68987;SDS011;56038;46.080;11.116;2024-03-22T12:38:17;1.20;;;0.60;;
68987;SDS011;56038;46.080;11.116;2024-03-22T12:43:19;2.30;;;0.60;;
68987;SDS011;56038;46.080;11.116;2024-03-22T12:48:20;2.03;;;0.82;;
68987;SDS011;56038;46.080;11.116;2024-03-22T12:53:23;15.10;;;1.30;;
68987;SDS011;56038;46.080;11.116;2024-03-22T12:58:25;2.47;;;0.90;;
68987;SDS011;56038;46.080;11.116;2024-03-22T13:03:27;4.18;;;1.02;;
68987;SDS011;56038;46.080;11.116;2024-03-22T13:08:30;1.13;;;0.50;;
68987;SDS011;56038;46.080;11.116;2024-03-22T13:13:31;0.90;;;0.50;;
68987;SDS011;56038;46.080;11.116;2024-03-22T13:18:33;3.22;;;0.98;;
68987;SDS011;56038;46.080;11.116;2024-03-22T13:23:36;1.92;;;0.90;;
68987;SDS011;56038;46.080;11.116;2024-03-22T13:28:38;0.80;;;0.80;;
68987;SDS011;56038;46.080;11.116;2024-03-22T13:38:44;1.20;;;0.60;;
68987;SDS011;56038;46.080;11.116;2024-03-22T13:43:46;1.17;;;0.98;;
68987;SDS011;56038;46.080;11.116;2024-03-22T13:48:48;1.40;;;0.77;;
68987;SDS011;56038;46.080;11.116;2024-03-22T13:53:51;1.15;;;0.70;;
68987;SDS011;56038;46.080;11.116;2024-03-22T13:58:53;1.17;;;0.80;;
68987;SDS011;56038;46.080;11.116;2024-03-22T14:03:54;0.73;;;0.70;;
68987;SDS011;56038;46.080;11.116;2024-03-22T14:08:58;1.55;;;0.85;;
68987;SDS011;56038;46.080;11.116;2024-03-22T14:14:01;1.10;;;0.90;;
68987;SDS011;56038;46.080;11.116;2024-03-22T14:19:03;1.08;;;0.95;;
68987;SDS011;56038;46.080;11.116;2024-03-22T14:24:06;1.90;;;1.08;;
68987;SDS011;56038;46.080;11.116;2024-03-22T14:29:08;3.40;;;1.30;;
68987;SDS011;56038;46.080;11.116;2024-03-22T14:34:10;2.95;;;1.10;;
68987;SDS011;56038;46.080;11.116;2024-03-22T14:39:13;1.58;;;1.10;;
68987;SDS011;56038;46.080;11.116;2024-03-22T14:44:15;2.63;;;1.50;;
68987;SDS011;56038;46.080;11.116;2024-03-22T14:49:16;3.05;;;1.40;;
68987;SDS011;56038;46.080;11.116;2024-03-22T14:54:22;7.03;;;2.72;;
68987;SDS011;56038;46.080;11.116;2024-03-22T14:59:26;2.92;;;2.60;;
68987;SDS011;56038;46.080;11.116;2024-03-22T15:04:28;10.52;;;3.97;;
68987;SDS011;56038;46.080;11.116;2024-03-22T15:09:32;13.98;;;4.10;;
68987;SDS011;56038;46.080;11.116;2024-03-22T15:14:33;4.32;;;3.35;;
68987;SDS011;56038;46.080;11.116;2024-03-22T15:19:35;6.40;;;4.57;;
68987;SDS011;56038;46.080;11.116;2024-03-22T15:24:38;4.90;;;3.90;;
68987;SDS011;56038;46.080;11.116;2024-03-22T15:29:40;6.32;;;4.75;;
68987;SDS011;56038;46.080;11.116;2024-03-22T15:34:42;7.10;;;4.95;;
68987;SDS011;56038;46.080;11.116;2024-03-22T15:39:45;5.75;;;4.85;;
68987;SDS011;56038;46.080;11.116;2024-03-22T15:44:46;11.23;;;5.75;;
68987;SDS011;56038;46.080;11.116;2024-03-22T15:49:48;7.63;;;6.25;;
68987;SDS011;56038;46.080;11.116;2024-03-22T15:54:51;9.00;;;6.20;;
68987;SDS011;56038;46.080;11.116;2024-03-22T15:59:53;8.30;;;6.67;;
68987;SDS011;56038;46.080;11.116;2024-03-22T16:04:55;10.10;;;7.20;;
68987;SDS011;56038;46.080;11.116;2024-03-22T16:09:58;8.98;;;7.35;;
68987;SDS011;56038;46.080;11.116;2024-03-22T16:15:03;9.95;;;6.50;;
68987;SDS011;56038;46.080;11.116;2024-03-22T16:20:06;8.95;;;7.03;;
68987;SDS011;56038;46.080;11.116;2024-03-22T16:25:10;9.45;;;6.45;;
68987;SDS011;56038;46.080;11.116;2024-03-22T16:30:12;10.27;;;8.15;;
68987;SDS011;56038;46.080;11.116;2024-03-22T16:35:14;8.88;;;7.30;;
68987;SDS011;56038;46.080;11.116;2024-03-22T16:40:18;10.25;;;8.15;;
68987;SDS011;56038;46.080;11.116;2024-03-22T16:45:20;10.50;;;8.23;;
68987;SDS011;56038;46.080;11.116;2024-03-22T16:50:22;13.07;;;8.80;;
68987;SDS011;56038;46.080;11.116;2024-03-22T16:55:25;8.55;;;7.25;;
68987;SDS011;56038;46.080;11.116;2024-03-22T17:00:26;9.65;;;7.60;;
68987;SDS011;56038;46.080;11.116;2024-03-22T17:05:30;10.07;;;8.32;;
68987;SDS011;56038;46.080;11.116;2024-03-22T17:10:33;11.57;;;9.82;;
68987;SDS011;56038;46.080;11.116;2024-03-22T17:15:36;11.93;;;8.13;;
68987;SDS011;56038;46.080;11.116;2024-03-22T17:20:38;12.77;;;9.20;;
68987;SDS011;56038;46.080;11.116;2024-03-22T17:25:43;11.15;;;7.63;;
68987;SDS011;56038;46.080;11.116;2024-03-22T17:30:45;11.75;;;9.48;;
68987;SDS011;56038;46.080;11.116;2024-03-22T17:35:47;15.32;;;10.23;;
68987;SDS011;56038;46.080;11.116;2024-03-22T17:40:50;10.45;;;9.27;;
68987;SDS011;56038;46.080;11.116;2024-03-22T17:45:55;10.55;;;8.45;;
68987;SDS011;56038;46.080;11.116;2024-03-22T17:50:57;10.85;;;8.20;;
68987;SDS011;56038;46.080;11.116;2024-03-22T17:56:00;13.60;;;9.40;;
68987;SDS011;56038;46.080;11.116;2024-03-22T18:01:01;12.35;;;9.18;;
68987;SDS011;56038;46.080;11.116;2024-03-22T18:06:03;10.68;;;8.07;;
68987;SDS011;56038;46.080;11.116;2024-03-22T18:11:07;27.27;;;9.88;;
68987;SDS011;56038;46.080;11.116;2024-03-22T18:16:08;11.90;;;9.30;;
68987;SDS011;56038;46.080;11.116;2024-03-22T18:21:10;12.43;;;8.88;;
68987;SDS011;56038;46.080;11.116;2024-03-22T18:26:13;11.95;;;9.55;;
68987;SDS011;56038;46.080;11.116;2024-03-22T18:31:15;12.23;;;9.95;;
68987;SDS011;56038;46.080;11.116;2024-03-22T18:36:18;12.20;;;9.57;;
68987;SDS011;56038;46.080;11.116;2024-03-22T18:41:21;12.45;;;9.30;;
68987;SDS011;56038;46.080;11.116;2024-03-22T18:46:22;10.85;;;8.55;;
68987;SDS011;56038;46.080;11.116;2024-03-22T18:51:24;10.77;;;8.63;;
68987;SDS011;56038;46.080;11.116;2024-03-22T18:56:27;16.30;;;11.60;;
68987;SDS011;56038;46.080;11.116;2024-03-22T19:01:28;12.48;;;8.95;;
68987;SDS011;56038;46.080;11.116;2024-03-22T19:06:31;11.45;;;9.05;;
68987;SDS011;56038;46.080;11.116;2024-03-22T19:11:34;13.27;;;9.38;;
68987;SDS011;56038;46.080;11.116;2024-03-22T19:16:35;12.13;;;9.15;;
68987;SDS011;56038;46.080;11.116;2024-03-22T19:21:37;12.88;;;9.50;;
68987;SDS011;56038;46.080;11.116;2024-03-22T19:26:40;12.38;;;9.23;;
68987;SDS011;56038;46.080;11.116;2024-03-22T19:31:42;11.32;;;8.32;;
68987;SDS011;56038;46.080;11.116;2024-03-22T19:36:43;13.20;;;9.55;;
68987;SDS011;56038;46.080;11.116;2024-03-22T19:41:47;16.95;;;11.85;;
68987;SDS011;56038;46.080;11.116;2024-03-22T19:46:48;11.07;;;8.65;;
68987;SDS011;56038;46.080;11.116;2024-03-22T19:51:50;11.50;;;9.43;;
68987;SDS011;56038;46.080;11.116;2024-03-22T19:56:53;11.15;;;9.10;;
68987;SDS011;56038;46.080;11.116;2024-03-22T20:01:55;13.93;;;9.93;;
68987;SDS011;56038;46.080;11.116;2024-03-22T20:06:57;14.73;;;9.60;;
68987;SDS011;56038;46.080;11.116;2024-03-22T20:12:00;11.88;;;9.32;;
68987;SDS011;56038;46.080;11.116;2024-03-22T20:17:02;11.90;;;9.75;;
68987;SDS011;56038;46.080;11.116;2024-03-22T20:22:03;12.60;;;9.73;;
68987;SDS011;56038;46.080;11.116;2024-03-22T20:27:06;13.60;;;9.60;;
68987;SDS011;56038;46.080;11.116;2024-03-22T20:32:08;12.88;;;10.35;;
68987;SDS011;56038;46.080;11.116;2024-03-22T20:37:10;16.45;;;10.57;;
